GFA152 OBBI-VTBS
Flight info
| Callsign | GFA152 |
|---|---|
| Flight time | N/A |
| Altitude | 35000 |
| Route | ASTAD N318 LABRI/N0457F370 N318 LAKLU G216 MCT DCT DERTO P307 VAXIM L301 RASKI L639 AAE/N0455F390 N895 NNP L524 IBETO WILLA1C |
| Aircraft | A320/M-SDE3FGHIRWY/LB1 |
Departure
| Time | 2026-04-30 22:06 |
|---|---|
| Airport | Bahrain International Airport (OBBI) |
Arrival
| Time | N/A |
|---|---|
| Airport | Suvarnabhumi Airport (VTBS) |
| Time | Latitude | Longitude | Altitude | Speed | Heading |
|---|---|---|---|---|---|
| 2026-04-30 21:47 | 26.26975 | 50.62813 | 24 ft | 0 kts | 213° |
| 2026-04-30 21:55 | 26.26981 | 50.62817 | 21 ft | 2 kts | 213° |
| 2026-04-30 21:55 | 26.26995 | 50.62827 | 22 ft | 2 kts | 213° |
| 2026-04-30 21:56 | 26.27009 | 50.62837 | 23 ft | 2 kts | 213° |
| 2026-04-30 21:56 | 26.27023 | 50.62847 | 21 ft | 2 kts | 213° |
| 2026-04-30 21:56 | 26.27039 | 50.62852 | 21 ft | 2 kts | 146° |
| 2026-04-30 21:56 | 26.27044 | 50.62849 | 24 ft | 0 kts | 127° |
| 2026-04-30 21:57 | 26.27050 | 50.62840 | 24 ft | 2 kts | 130° |
| 2026-04-30 21:57 | 26.27063 | 50.62827 | 22 ft | 2 kts | 143° |
| 2026-04-30 21:57 | 26.27071 | 50.62817 | 26 ft | 0 kts | 119° |
| 2026-04-30 21:58 | 26.27071 | 50.62818 | 24 ft | 1 kts | 119° |
| 2026-04-30 21:59 | 26.27063 | 50.62854 | 23 ft | 7 kts | 89° |
| 2026-04-30 21:59 | 26.27085 | 50.62891 | 22 ft | 5 kts | 39° |
| 2026-04-30 21:59 | 26.27116 | 50.62925 | 24 ft | 7 kts | 65° |
| 2026-04-30 22:00 | 26.27083 | 50.63010 | 23 ft | 12 kts | 123° |
| 2026-04-30 22:00 | 26.26984 | 50.63180 | 19 ft | 13 kts | 122° |
| 2026-04-30 22:00 | 26.26938 | 50.63263 | 21 ft | 12 kts | 122° |
| 2026-04-30 22:01 | 26.26896 | 50.63332 | 20 ft | 10 kts | 123° |
| 2026-04-30 22:01 | 26.26832 | 50.63442 | 20 ft | 23 kts | 122° |
| 2026-04-30 22:01 | 26.26750 | 50.63587 | 21 ft | 21 kts | 122° |
| 2026-04-30 22:01 | 26.26677 | 50.63712 | 22 ft | 18 kts | 122° |
| 2026-04-30 22:02 | 26.26611 | 50.63826 | 21 ft | 17 kts | 123° |
| 2026-04-30 22:02 | 26.26552 | 50.63927 | 22 ft | 14 kts | 123° |
| 2026-04-30 22:02 | 26.26500 | 50.64018 | 21 ft | 14 kts | 122° |
| 2026-04-30 22:02 | 26.26450 | 50.64107 | 21 ft | 13 kts | 122° |
| 2026-04-30 22:03 | 26.26402 | 50.64189 | 21 ft | 12 kts | 122° |
| 2026-04-30 22:03 | 26.26360 | 50.64262 | 21 ft | 11 kts | 123° |
| 2026-04-30 22:03 | 26.26321 | 50.64329 | 19 ft | 10 kts | 123° |
| 2026-04-30 22:03 | 26.26284 | 50.64392 | 19 ft | 9 kts | 123° |
| 2026-04-30 22:04 | 26.26213 | 50.64515 | 19 ft | 28 kts | 122° |
| 2026-04-30 22:04 | 26.26110 | 50.64696 | 19 ft | 27 kts | 122° |
| 2026-04-30 22:04 | 26.26085 | 50.64990 | 18 ft | 17 kts | 34° |
| 2026-04-30 22:05 | 26.26173 | 50.64943 | 18 ft | 17 kts | 304° |
| 2026-04-30 22:05 | 26.26240 | 50.64830 | 16 ft | 19 kts | 302° |
| 2026-04-30 22:05 | 26.26353 | 50.64629 | 15 ft | 63 kts | 302° |
| 2026-04-30 22:05 | 26.26746 | 50.63948 | 18 ft | 142 kts | 302° |
| 2026-04-30 22:06 | 26.27377 | 50.62836 | 161 ft | 189 kts | 302° |
| 2026-04-30 22:06 | 26.29040 | 50.60614 | 1811 ft | 197 kts | 337° |
| 2026-04-30 22:06 | 26.30378 | 50.60100 | 2149 ft | 213 kts | 347° |
| 2026-04-30 22:07 | 26.31872 | 50.59729 | 2601 ft | 225 kts | 356° |
| 2026-04-30 22:07 | 26.33431 | 50.59992 | 3109 ft | 238 kts | 22° |
| 2026-04-30 22:07 | 26.34724 | 50.61232 | 3562 ft | 259 kts | 57° |
| 2026-04-30 22:07 | 26.35189 | 50.63198 | 4251 ft | 273 kts | 90° |
| 2026-04-30 22:08 | 26.34951 | 50.65335 | 4984 ft | 281 kts | 97° |
| 2026-04-30 22:08 | 26.34619 | 50.67510 | 5669 ft | 289 kts | 99° |
| 2026-04-30 22:08 | 26.34254 | 50.69733 | 6414 ft | 294 kts | 101° |
| 2026-04-30 22:08 | 26.33881 | 50.71990 | 7136 ft | 298 kts | 101° |
| 2026-04-30 22:09 | 26.33509 | 50.74278 | 7876 ft | 302 kts | 101° |
| 2026-04-30 22:09 | 26.33139 | 50.76601 | 8608 ft | 307 kts | 102° |
| 2026-04-30 22:09 | 26.32766 | 50.78960 | 9325 ft | 311 kts | 102° |
| 2026-04-30 22:09 | 26.32389 | 50.81356 | 10009 ft | 317 kts | 102° |
| 2026-04-30 22:10 | 26.32002 | 50.83822 | 10389 ft | 334 kts | 102° |
| 2026-04-30 22:10 | 26.31587 | 50.86462 | 10563 ft | 357 kts | 102° |
| 2026-04-30 22:10 | 26.31149 | 50.89258 | 10837 ft | 374 kts | 102° |
| 2026-04-30 22:10 | 26.30703 | 50.92107 | 11394 ft | 380 kts | 102° |
| 2026-04-30 22:11 | 26.28833 | 50.97603 | 12657 ft | 383 kts | 122° |
| 2026-04-30 22:11 | 26.27518 | 51.00206 | 13300 ft | 387 kts | 123° |
| 2026-04-30 22:11 | 26.26190 | 51.02833 | 13910 ft | 391 kts | 123° |
| 2026-04-30 22:12 | 26.24853 | 51.05486 | 14460 ft | 395 kts | 123° |
| 2026-04-30 22:12 | 26.23508 | 51.08167 | 15024 ft | 398 kts | 123° |
| 2026-04-30 22:12 | 26.22153 | 51.10874 | 15582 ft | 401 kts | 123° |
| 2026-04-30 22:12 | 26.20789 | 51.13599 | 16128 ft | 405 kts | 123° |
| 2026-04-30 22:13 | 26.19408 | 51.16350 | 16654 ft | 409 kts | 123° |
| 2026-04-30 22:13 | 26.18007 | 51.19134 | 17180 ft | 413 kts | 123° |
| 2026-04-30 22:13 | 26.16593 | 51.21937 | 17704 ft | 418 kts | 123° |
| 2026-04-30 22:13 | 26.15161 | 51.24769 | 18212 ft | 422 kts | 123° |
| 2026-04-30 22:14 | 26.13714 | 51.27627 | 18672 ft | 425 kts | 123° |
| 2026-04-30 22:14 | 26.12259 | 51.30505 | 19152 ft | 429 kts | 123° |
| 2026-04-30 22:14 | 26.10795 | 51.33404 | 19640 ft | 432 kts | 123° |
| 2026-04-30 22:14 | 26.09317 | 51.36329 | 20139 ft | 435 kts | 123° |
| 2026-04-30 22:15 | 26.07832 | 51.39270 | 20622 ft | 438 kts | 123° |
| 2026-04-30 22:15 | 26.06339 | 51.42231 | 21116 ft | 440 kts | 123° |
| 2026-04-30 22:15 | 26.04834 | 51.45211 | 21592 ft | 443 kts | 123° |
| 2026-04-30 22:15 | 26.03316 | 51.48204 | 22069 ft | 446 kts | 123° |
| 2026-04-30 22:16 | 26.01786 | 51.51218 | 22529 ft | 449 kts | 123° |
| 2026-04-30 22:16 | 26.00248 | 51.54247 | 22981 ft | 452 kts | 123° |
| 2026-04-30 22:17 | 25.95576 | 51.63448 | 24123 ft | 460 kts | 124° |
| 2026-04-30 22:17 | 25.93995 | 51.66554 | 24446 ft | 463 kts | 124° |
| 2026-04-30 22:17 | 25.90804 | 51.72818 | 25082 ft | 469 kts | 124° |
| 2026-04-30 22:18 | 25.89207 | 51.75987 | 25391 ft | 472 kts | 124° |
| 2026-04-30 22:18 | 25.86050 | 51.82431 | 25984 ft | 478 kts | 123° |
| 2026-04-30 22:19 | 25.82912 | 51.88988 | 26568 ft | 485 kts | 122° |
| 2026-04-30 22:19 | 25.81424 | 51.92362 | 26839 ft | 489 kts | 120° |
| 2026-04-30 22:19 | 25.78585 | 51.99281 | 27354 ft | 496 kts | 119° |
| 2026-04-30 22:20 | 25.77179 | 52.02779 | 27610 ft | 498 kts | 119° |
| 2026-04-30 22:20 | 25.74295 | 52.09810 | 28117 ft | 503 kts | 120° |
| 2026-04-30 22:20 | 25.72815 | 52.13334 | 28352 ft | 505 kts | 120° |
| 2026-04-30 22:21 | 25.71315 | 52.16863 | 28592 ft | 507 kts | 121° |
| 2026-04-30 22:21 | 25.69800 | 52.20407 | 28815 ft | 510 kts | 121° |
| 2026-04-30 22:21 | 25.68280 | 52.23963 | 29030 ft | 512 kts | 121° |
| 2026-04-30 22:21 | 25.66756 | 52.27542 | 29244 ft | 514 kts | 120° |
| 2026-04-30 22:22 | 25.65233 | 52.31136 | 29439 ft | 516 kts | 120° |
| 2026-04-30 22:22 | 25.63705 | 52.34747 | 29644 ft | 518 kts | 120° |
| 2026-04-30 22:22 | 25.62171 | 52.38371 | 29832 ft | 520 kts | 121° |
| 2026-04-30 22:22 | 25.60576 | 52.41960 | 30073 ft | 518 kts | 123° |
| 2026-04-30 22:23 | 25.58880 | 52.45476 | 30317 ft | 516 kts | 125° |
| 2026-04-30 22:23 | 25.57114 | 52.48925 | 30554 ft | 514 kts | 126° |
| 2026-04-30 22:23 | 25.55311 | 52.52340 | 30806 ft | 513 kts | 127° |
| 2026-04-30 22:23 | 25.53505 | 52.55749 | 31059 ft | 513 kts | 126° |
| 2026-04-30 22:24 | 25.51717 | 52.59164 | 31315 ft | 512 kts | 126° |
| 2026-04-30 22:24 | 25.49978 | 52.62541 | 31561 ft | 512 kts | 126° |
| 2026-04-30 22:24 | 25.48237 | 52.65976 | 31799 ft | 511 kts | 125° |
| 2026-04-30 22:24 | 25.46488 | 52.69459 | 32056 ft | 511 kts | 125° |
| 2026-04-30 22:25 | 25.44785 | 52.72853 | 32298 ft | 510 kts | 126° |
| 2026-04-30 22:25 | 25.43028 | 52.76248 | 32544 ft | 508 kts | 127° |
| 2026-04-30 22:25 | 25.41221 | 52.79598 | 32794 ft | 507 kts | 128° |
| 2026-04-30 22:25 | 25.39377 | 52.82907 | 33051 ft | 505 kts | 129° |
| 2026-04-30 22:26 | 25.35637 | 52.89464 | 33563 ft | 503 kts | 129° |
| 2026-04-30 22:26 | 25.33778 | 52.92736 | 33817 ft | 503 kts | 129° |
| 2026-04-30 22:26 | 25.31951 | 52.96030 | 34039 ft | 504 kts | 125° |
| 2026-04-30 22:27 | 25.30418 | 52.99542 | 34263 ft | 508 kts | 120° |
| 2026-04-30 22:27 | 25.28977 | 53.03101 | 34484 ft | 507 kts | 120° |
| 2026-04-30 22:27 | 25.26084 | 53.10192 | 34815 ft | 505 kts | 120° |
| 2026-04-30 22:28 | 25.21732 | 53.20780 | 34840 ft | 504 kts | 120° |
| 2026-04-30 22:29 | 25.17109 | 53.31146 | 34838 ft | 495 kts | 131° |
| 2026-04-30 22:29 | 25.15020 | 53.34122 | 34839 ft | 488 kts | 136° |
| 2026-04-30 22:31 | 24.99865 | 53.54357 | 34823 ft | 489 kts | 135° |
| 2026-04-30 22:32 | 24.95327 | 53.64583 | 34836 ft | 507 kts | 110° |
| 2026-04-30 22:32 | 24.93359 | 53.72045 | 34835 ft | 507 kts | 111° |
| 2026-04-30 22:33 | 24.88364 | 53.90714 | 34829 ft | 509 kts | 111° |
| 2026-04-30 22:35 | 24.83228 | 54.09245 | 34825 ft | 503 kts | 118° |
| 2026-04-30 22:36 | 24.76696 | 54.25724 | 34823 ft | 503 kts | 118° |
| 2026-04-30 22:37 | 24.71113 | 54.39744 | 34824 ft | 501 kts | 118° |
| 2026-04-30 22:38 | 24.64835 | 54.53295 | 34824 ft | 495 kts | 126° |
| 2026-04-30 22:39 | 24.59512 | 54.63018 | 34834 ft | 495 kts | 126° |
| 2026-04-30 22:40 | 24.48650 | 54.82267 | 34834 ft | 492 kts | 128° |
| 2026-04-30 22:41 | 24.39303 | 54.98009 | 34838 ft | 493 kts | 127° |
| 2026-04-30 22:43 | 24.28217 | 55.16852 | 34852 ft | 491 kts | 127° |
| 2026-04-30 22:44 | 24.20797 | 55.29406 | 34860 ft | 491 kts | 127° |
| 2026-04-30 22:45 | 24.14596 | 55.42748 | 35129 ft | 495 kts | 116° |
| 2026-04-30 22:45 | 24.11942 | 55.49684 | 35565 ft | 493 kts | 116° |
| 2026-04-30 22:46 | 24.09283 | 55.56584 | 35967 ft | 491 kts | 116° |
| 2026-04-30 22:47 | 24.03739 | 55.70183 | 36719 ft | 486 kts | 121° |
| 2026-04-30 22:47 | 24.00537 | 55.76685 | 36870 ft | 486 kts | 122° |
| 2026-04-30 22:48 | 23.97298 | 55.83177 | 36872 ft | 486 kts | 122° |
| 2026-04-30 22:49 | 23.87934 | 56.02844 | 36897 ft | 487 kts | 121° |
| 2026-04-30 22:51 | 23.78483 | 56.22503 | 36909 ft | 487 kts | 121° |
| 2026-04-30 22:52 | 23.73762 | 56.32319 | 36920 ft | 487 kts | 121° |
| 2026-04-30 22:53 | 23.67445 | 56.45402 | 36906 ft | 487 kts | 121° |
| 2026-04-30 22:53 | 23.62705 | 56.55199 | 36929 ft | 486 kts | 121° |
| 2026-04-30 22:55 | 23.54800 | 56.71490 | 36931 ft | 486 kts | 121° |
| 2026-04-30 22:56 | 23.48472 | 56.84506 | 36926 ft | 486 kts | 122° |
| 2026-04-30 22:57 | 23.40579 | 57.00743 | 36932 ft | 486 kts | 118° |
| 2026-04-30 22:57 | 23.38777 | 57.07808 | 36936 ft | 493 kts | 97° |
| 2026-04-30 22:58 | 23.39215 | 57.15265 | 36919 ft | 497 kts | 80° |
| 2026-04-30 22:59 | 23.43259 | 57.37430 | 36919 ft | 498 kts | 80° |